Time;durP1;ratioP1;P1;durP2;ratioP2;P2;SDS_P1;SDS_P2;PMS_P1;PMS_P2;Temp;Humidity;BMP_temperature;BMP_pressure;BME280_temperature;BME280_humidity;BME280_pressure;Samples;Min_cycle;Max_cycle;Signal;HPM_P1;HPM_P2
2024/01/23 00:00:48;;;;;;;3.83;1.48;;;6.80;1.00;;;;;;5133942;27;20121;-72
2024/01/23 00:03:14;;;;;;;0.60;0.60;;;6.80;1.00;;;;;;5133068;27;20479;-72
2024/01/23 00:05:40;;;;;;;0.40;0.40;;;6.80;1.00;;;;;;5135492;27;20431;-71
2024/01/23 00:08:06;;;;;;;3.63;0.65;;;;;;;;;;5137202;27;20059;-71
2024/01/23 00:10:31;;;;;;;0.40;0.40;;;6.70;1.00;;;;;;5155317;27;20053;-72
2024/01/23 00:12:57;;;;;;;0.30;0.30;;;6.90;1.00;;;;;;5155430;27;20047;-72
2024/01/23 00:15:23;;;;;;;0.32;0.32;;;;;;;;;;5137029;27;20042;-74
2024/01/23 00:17:49;;;;;;;3.55;1.25;;;6.90;1.00;;;;;;5137020;27;20057;-71
2024/01/23 00:20:14;;;;;;;4.75;1.65;;;6.80;1.00;;;;;;5154942;27;20038;-71
2024/01/23 00:22:40;;;;;;;0.68;0.68;;;6.90;1.00;;;;;;5136981;27;20053;-71
2024/01/23 00:25:06;;;;;;;2.50;0.90;;;;;;;;;;5154860;27;20051;-72
2024/01/23 00:27:32;;;;;;;0.20;0.20;;;7.00;1.00;;;;;;5155375;27;20484;-71
2024/01/23 00:29:58;;;;;;;0.40;0.40;;;;;;;;;;5150386;27;20043;-72
2024/01/23 00:32:28;;;;;;;0.20;0.20;;;6.90;1.00;;;;;;5134869;27;20622;-72
2024/01/23 00:34:54;;;;;;;0.43;0.43;;;7.10;1.00;;;;;;5113505;27;20047;-71
2024/01/23 00:37:20;;;;;;;0.20;0.20;;;;;;;;;;5147522;27;20520;-73
2024/01/23 00:39:46;;;;;;;0.30;0.30;;;6.90;99.90;;;;;;5141321;27;20045;-71
2024/01/23 00:42:12;;;;;;;1.55;0.57;;;6.80;1.00;;;;;;5154915;27;20451;-72
2024/01/23 00:44:37;;;;;;;0.30;0.30;;;6.80;99.90;;;;;;5136322;27;20053;-71
2024/01/23 00:47:03;;;;;;;1.65;1.55;;;6.90;99.90;;;;;;5154798;27;20046;-76
2024/01/23 00:49:29;;;;;;;0.52;0.52;;;6.90;99.90;;;;;;5115297;27;20502;-72
2024/01/23 00:51:55;;;;;;;0.85;0.85;;;6.90;99.90;;;;;;5128743;27;20081;-73
2024/01/23 00:54:20;;;;;;;0.20;0.20;;;6.90;99.90;;;;;;5154305;27;20046;-71
2024/01/23 00:56:46;;;;;;;0.38;0.38;;;7.10;99.90;;;;;;5136106;27;20486;-75
2024/01/23 00:59:12;;;;;;;0.70;0.52;;;;;;;;;;5136009;27;20035;-72
2024/01/23 01:01:38;;;;;;;;;;;7.10;99.90;;;;;;5135087;27;20183;-72
2024/01/23 01:04:04;;;;;;;0.30;0.30;;;7.00;99.90;;;;;;5134214;27;20045;-73
2024/01/23 01:06:30;;;;;;;0.77;0.65;;;7.30;99.90;;;;;;5127756;27;20058;-76
2024/01/23 01:08:56;;;;;;;0.63;0.55;;;7.00;99.90;;;;;;5154857;27;20045;-70
2024/01/23 01:11:22;;;;;;;1.15;0.85;;;7.10;99.90;;;;;;5136587;27;20083;-72
2024/01/23 01:13:48;;;;;;;0.40;0.40;;;6.90;99.90;;;;;;5154614;27;20161;-74
2024/01/23 01:16:14;;;;;;;2.92;0.70;;;6.90;99.90;;;;;;5143065;27;20058;-72
2024/01/23 01:18:40;;;;;;;0.60;0.60;;;;;;;;;;5152582;27;20038;-73
2024/01/23 01:21:09;;;;;;;0.25;0.25;;;6.90;99.90;;;;;;5155038;27;20398;-71
2024/01/23 01:23:35;;;;;;;1.30;0.57;;;;;;;;;;5154566;27;20053;-72
2024/01/23 01:26:01;;;;;;;4.18;1.60;;;6.80;99.90;;;;;;5135840;27;20492;-71
2024/01/23 01:28:27;;;;;;;0.20;0.20;;;6.90;99.90;;;;;;5135524;27;20110;-71
2024/01/23 01:30:53;;;;;;;0.88;0.43;;;7.10;99.90;;;;;;5146571;27;20061;-73
2024/01/23 01:33:19;;;;;;;2.72;1.83;;;6.90;99.90;;;;;;5154444;27;20470;-71
2024/01/23 01:35:45;;;;;;;0.65;0.57;;;6.90;99.90;;;;;;5136052;27;20062;-72
2024/01/23 01:38:11;;;;;;;0.30;0.30;;;;;;;;;;5114914;27;20043;-71
2024/01/23 01:40:37;;;;;;;11.93;1.48;;;6.80;99.90;;;;;;5146347;27;20490;-73
2024/01/23 01:43:02;;;;;;;0.65;0.65;;;6.90;99.90;;;;;;5135019;27;20049;-73
2024/01/23 01:45:28;;;;;;;0.20;0.20;;;6.70;99.90;;;;;;5154352;27;20050;-71
2024/01/23 01:47:54;;;;;;;0.25;0.25;;;;;;;;;;5153627;27;20046;-72
2024/01/23 01:50:20;;;;;;;0.20;0.20;;;;;;;;;;5154174;27;20550;-72
2024/01/23 01:52:47;;;;;;;0.88;0.85;;;6.80;99.90;;;;;;5153809;27;20050;-70
2024/01/23 01:55:13;;;;;;;0.20;0.20;;;6.70;99.90;;;;;;5153732;27;20458;-72
2024/01/23 01:57:42;;;;;;;1.30;1.20;;;6.70;99.90;;;;;;5153583;27;20082;-70
2024/01/23 02:00:08;;;;;;;11.00;2.25;;;6.50;99.90;;;;;;5135588;27;20453;-72
2024/01/23 02:02:36;;;;;;;0.88;0.88;;;6.60;99.90;;;;;;5153300;27;20053;-73
2024/01/23 02:05:02;;;;;;;0.95;0.95;;;;;;;;;;5154020;27;20050;-71
2024/01/23 02:07:29;;;;;;;0.20;0.20;;;6.60;99.90;;;;;;5134885;27;20435;-70
2024/01/23 02:09:54;;;;;;;;;;;6.70;99.90;;;;;;5153340;27;20082;-73
2024/01/23 02:12:20;;;;;;;0.20;0.20;;;6.70;99.90;;;;;;5117997;27;20038;-71
2024/01/23 02:14:46;;;;;;;1.08;1.00;;;6.70;99.90;;;;;;5122017;27;20051;-73
2024/01/23 02:17:11;;;;;;;5.18;0.95;;;6.80;99.90;;;;;;5134953;27;20503;-73
2024/01/23 02:19:37;;;;;;;1.25;0.68;;;6.90;99.90;;;;;;5153752;27;20125;-72
2024/01/23 02:22:03;;;;;;;0.68;0.68;;;6.90;99.90;;;;;;5117521;27;20486;-75
2024/01/23 02:24:29;;;;;;;0.20;0.20;;;;;;;;;;5134572;27;20108;-72
2024/01/23 02:26:55;;;;;;;2.10;0.75;;;6.90;99.90;;;;;;5134479;27;20402;-71
2024/01/23 02:29:20;;;;;;;1.27;1.15;;;7.00;99.90;;;;;;5114404;27;20039;-71
2024/01/23 02:31:46;;;;;;;0.57;0.57;;;6.70;99.90;;;;;;5134099;27;20038;-71
2024/01/23 02:34:12;;;;;;;1.75;0.82;;;7.00;99.90;;;;;;5140474;27;20044;-73
2024/01/23 02:36:39;;;;;;;0.35;0.35;;;7.00;99.90;;;;;;5127792;27;20051;-72
2024/01/23 02:39:06;;;;;;;1.40;0.65;;;7.10;99.90;;;;;;5133042;27;20080;-72
2024/01/23 02:41:32;;;;;;;0.55;0.50;;;;;;;;;;5146058;27;20455;-71
2024/01/23 02:43:59;;;;;;;3.22;0.40;;;;;;;;;;5132751;27;20456;-72
2024/01/23 02:46:25;;;;;;;0.28;0.28;;;;;;;;;;5138669;27;20079;-73
2024/01/23 02:48:50;;;;;;;;;;;7.40;99.90;;;;;;5135264;27;20050;-73
2024/01/23 02:51:18;;;;;;;0.30;0.30;;;7.20;99.90;;;;;;5114889;27;20299;-73
2024/01/23 02:53:44;;;;;;;0.55;0.55;;;7.30;99.90;;;;;;5127891;27;20055;-73
2024/01/23 02:56:10;;;;;;;1.67;0.88;;;7.20;99.90;;;;;;5139087;27;20042;-71
2024/01/23 02:58:37;;;;;;;1.98;1.88;;;7.30;99.90;;;;;;5121576;27;20111;-74
2024/01/23 03:01:03;;;;;;;0.32;0.32;;;7.30;99.90;;;;;;5152692;27;20386;-74
2024/01/23 03:03:28;;;;;;;11.55;2.17;;;7.20;99.90;;;;;;5152885;27;20134;-74
2024/01/23 03:05:54;;;;;;;0.70;0.30;;;7.10;99.90;;;;;;5133982;27;20094;-72
2024/01/23 03:08:22;;;;;;;0.32;0.32;;;;;;;;;;5139395;27;20059;-72
2024/01/23 03:10:48;;;;;;;3.20;0.60;;;7.00;99.90;;;;;;5145797;27;20433;-71
2024/01/23 03:13:14;;;;;;;0.80;0.80;;;;;;;;;;5132489;27;20050;-71
2024/01/23 03:15:40;;;;;;;0.40;0.40;;;6.90;99.90;;;;;;5134551;27;20147;-73
2024/01/23 03:18:06;;;;;;;1.00;1.00;;;7.10;99.90;;;;;;5138498;27;20831;-71
2024/01/23 03:20:33;;;;;;;2.97;2.03;;;7.50;99.90;;;;;;5140512;27;20148;-73
2024/01/23 03:22:59;;;;;;;3.47;1.75;;;;;;;;;;5108077;27;20085;-73
2024/01/23 03:25:25;;;;;;;0.52;0.43;;;7.10;99.90;;;;;;5131200;27;20416;-72
2024/01/23 03:27:52;;;;;;;;;;;;;;;;;;5137281;27;20544;-72
2024/01/23 03:30:30;;;;;;;4.13;0.95;;;7.20;99.90;;;;;;5136282;27;20382;-72
2024/01/23 03:32:57;;;;;;;4.70;2.42;;;;;;;;;;5150143;27;20771;-74
2024/01/23 03:35:23;;;;;;;1.27;0.75;;;7.20;99.90;;;;;;5127225;27;20112;-72
2024/01/23 03:37:48;;;;;;;0.63;0.63;;;7.40;99.90;;;;;;5143068;27;20059;-72
2024/01/23 03:40:15;;;;;;;1.80;0.68;;;;;;;;;;5156909;27;20042;-72
2024/01/23 03:42:41;;;;;;;0.40;0.38;;;7.30;99.90;;;;;;5153720;27;20058;-75
2024/01/23 03:45:08;;;;;;;3.10;1.23;;;;;;;;;;5135947;27;20472;-71
2024/01/23 03:47:34;;;;;;;0.20;0.20;;;7.50;99.90;;;;;;5138283;27;21220;-73
2024/01/23 03:50:00;;;;;;;3.45;0.98;;;7.40;99.90;;;;;;5156803;27;20130;-73
2024/01/23 03:52:25;;;;;;;2.08;0.40;;;7.60;99.90;;;;;;5139923;27;20134;-72
2024/01/23 03:54:51;;;;;;;0.20;0.20;;;;;;;;;;5145838;27;20046;-75
2024/01/23 03:57:18;;;;;;;0.50;0.50;;;7.40;99.90;;;;;;5155972;27;20066;-74
2024/01/23 03:59:45;;;;;;;11.55;1.23;;;7.30;99.90;;;;;;5137660;27;20125;-71
2024/01/23 04:02:11;;;;;;;0.40;0.40;;;7.40;99.90;;;;;;5134483;27;20133;-73
2024/01/23 04:04:38;;;;;;;0.40;0.40;;;7.30;99.90;;;;;;5117655;27;20749;-76
2024/01/23 04:07:04;;;;;;;14.13;0.68;;;7.20;99.90;;;;;;5149589;27;20065;-72
2024/01/23 04:09:30;;;;;;;1.85;1.75;;;7.40;99.90;;;;;;5145433;27;20043;-70
2024/01/23 04:11:56;;;;;;;2.05;1.38;;;7.20;99.90;;;;;;5155734;27;20091;-73
2024/01/23 04:14:22;;;;;;;0.80;0.80;;;7.20;99.90;;;;;;5156088;27;20042;-71
2024/01/23 04:16:48;;;;;;;14.20;1.15;;;7.20;99.90;;;;;;5155695;27;20083;-73
2024/01/23 04:19:13;;;;;;;0.55;0.55;;;7.50;99.90;;;;;;5155683;27;20038;-70
2024/01/23 04:21:39;;;;;;;0.70;0.70;;;7.20;99.90;;;;;;5152586;27;20046;-72
2024/01/23 04:24:05;;;;;;;0.73;0.68;;;7.60;99.90;;;;;;5135409;27;20074;-73
2024/01/23 04:26:31;;;;;;;2.20;1.65;;;7.70;99.90;;;;;;5151701;27;20118;-73
2024/01/23 04:28:57;;;;;;;5.18;0.90;;;7.40;99.90;;;;;;5120238;27;20050;-72
2024/01/23 04:31:23;;;;;;;1.75;1.05;;;7.10;99.90;;;;;;5154890;27;20077;-73
2024/01/23 04:33:49;;;;;;;17.45;2.97;;;7.30;99.90;;;;;;5136696;27;20470;-71
2024/01/23 04:36:18;;;;;;;10.52;0.68;;;;;;;;;;5155450;27;20042;-72
2024/01/23 04:38:45;;;;;;;3.53;1.60;;;;;;;;;;5155753;27;20074;-74
2024/01/23 04:41:11;;;;;;;2.45;1.23;;;7.40;99.90;;;;;;5141370;27;20042;-71
2024/01/23 04:43:37;;;;;;;0.73;0.73;;;7.40;99.90;;;;;;5155764;27;20047;-72
2024/01/23 04:46:03;;;;;;;5.40;1.08;;;7.50;99.90;;;;;;5155083;27;20050;-72
2024/01/23 04:48:29;;;;;;;5.75;0.95;;;7.40;99.90;;;;;;5155242;27;20046;-73
2024/01/23 04:50:55;;;;;;;20.77;1.38;;;7.50;99.90;;;;;;5155265;27;20046;-71
2024/01/23 04:53:20;;;;;;;0.20;0.20;;;7.30;99.90;;;;;;5144688;27;20042;-71
2024/01/23 04:55:46;;;;;;;0.35;0.35;;;7.40;99.90;;;;;;5129792;27;20479;-73
2024/01/23 04:58:12;;;;;;;1.38;1.27;;;7.40;99.90;;;;;;5134682;27;20050;-72
2024/01/23 05:00:37;;;;;;;4.40;2.25;;;7.40;99.90;;;;;;5130111;27;20050;-73
2024/01/23 05:03:03;;;;;;;0.65;0.65;;;7.50;99.90;;;;;;5126942;27;20042;-73
2024/01/23 05:05:31;;;;;;;10.00;2.22;;;;;;;;;;5121916;27;20046;-73
2024/01/23 05:07:57;;;;;;;12.75;0.82;;;7.30;1.00;;;;;;5132345;27;20143;-72
2024/01/23 05:10:24;;;;;;;0.88;0.88;;;7.00;1.00;;;;;;5133610;27;20126;-74
2024/01/23 05:12:49;;;;;;;0.40;0.40;;;6.90;1.00;;;;;;5132962;27;20047;-74
2024/01/23 05:15:15;;;;;;;17.70;0.88;;;7.20;1.00;;;;;;5131934;27;20174;-73
2024/01/23 05:17:41;;;;;;;0.50;0.50;;;7.10;1.00;;;;;;5134061;27;20043;-74
2024/01/23 05:20:07;;;;;;;12.43;1.15;;;6.90;1.00;;;;;;5133477;27;20376;-71
2024/01/23 05:22:34;;;;;;;0.57;0.57;;;;;;;;;;5134198;27;20050;-71
2024/01/23 05:24:59;;;;;;;1.85;0.68;;;7.30;1.00;;;;;;5132976;27;20075;-72
2024/01/23 05:27:26;;;;;;;0.38;0.38;;;6.80;1.00;;;;;;5133845;27;20131;-72
2024/01/23 05:29:52;;;;;;;3.90;0.75;;;6.80;1.00;;;;;;5133383;27;20071;-72
2024/01/23 05:32:18;;;;;;;2.67;1.52;;;;;;;;;;5132788;27;20175;-72
2024/01/23 05:34:43;;;;;;;2.17;0.98;;;6.80;1.00;;;;;;5133037;27;20423;-72
2024/01/23 05:37:10;;;;;;;3.08;2.78;;;6.80;1.00;;;;;;5133475;27;20147;-72
2024/01/23 05:39:37;;;;;;;3.92;3.53;;;6.80;1.00;;;;;;5130865;27;20469;-73
2024/01/23 05:42:03;;;;;;;28.42;1.27;;;;;;;;;;5133200;27;20152;-74
2024/01/23 05:44:29;;;;;;;;;;;6.70;1.00;;;;;;5131624;27;20120;-73
2024/01/23 05:46:55;;;;;;;2.63;1.10;;;;;;;;;;5133093;27;19961;-71
2024/01/23 05:49:21;;;;;;;4.78;2.15;;;6.60;1.00;;;;;;5132430;27;20042;-73
2024/01/23 05:51:47;;;;;;;2.53;1.45;;;6.70;1.00;;;;;;5132126;27;20043;-73
2024/01/23 05:54:13;;;;;;;3.92;1.45;;;;;;;;;;5111523;28;20138;-71
2024/01/23 05:56:39;;;;;;;2.65;0.75;;;6.90;1.00;;;;;;5112991;28;20059;-71
2024/01/23 05:59:05;;;;;;;0.45;0.45;;;;;;;;;;5113753;27;20046;-73
2024/01/23 06:01:33;;;;;;;11.20;2.08;;;6.60;1.00;;;;;;5113158;27;20054;-71
2024/01/23 06:04:00;;;;;;;0.50;0.50;;;6.80;1.00;;;;;;5113812;27;20444;-72
2024/01/23 06:06:26;;;;;;;0.60;0.60;;;6.50;1.00;;;;;;5128391;27;20066;-74
2024/01/23 06:08:52;;;;;;;2.45;0.50;;;;;;;;;;5135171;27;20137;-74
2024/01/23 06:11:18;;;;;;;17.02;1.60;;;6.60;1.00;;;;;;5153570;27;20118;-73
2024/01/23 06:13:44;;;;;;;1.85;1.75;;;;;;;;;;5149276;27;20055;-74
2024/01/23 06:16:10;;;;;;;16.73;1.77;;;;;;;;;;5098059;27;20054;-72
2024/01/23 06:18:36;;;;;;;;;;;6.30;1.00;;;;;;5119414;27;20091;-71
2024/01/23 06:21:02;;;;;;;0.98;0.98;;;6.50;1.00;;;;;;5135213;27;19919;-74
2024/01/23 06:23:28;;;;;;;0.40;0.40;;;7.10;1.00;;;;;;5138568;27;20141;-72
2024/01/23 06:25:54;;;;;;;0.40;0.40;;;6.60;1.00;;;;;;5143991;27;20130;-73
2024/01/23 06:28:19;;;;;;;1.33;1.23;;;6.60;1.00;;;;;;5145954;27;20042;-72
2024/01/23 06:30:46;;;;;;;1.45;1.35;;;6.60;1.00;;;;;;5145113;27;20163;-74
2024/01/23 06:33:12;;;;;;;1.98;1.05;;;;;;;;;;5111471;27;20066;-74
2024/01/23 06:35:39;;;;;;;2.20;1.52;;;6.50;1.00;;;;;;5120978;27;20055;-73
2024/01/23 06:38:06;;;;;;;1.77;1.67;;;6.60;1.00;;;;;;5117856;27;20043;-72
2024/01/23 06:40:32;;;;;;;2.05;1.95;;;6.60;1.00;;;;;;5136220;27;20038;-73
2024/01/23 06:42:58;;;;;;;1.42;1.35;;;6.50;1.00;;;;;;5133404;27;20043;-73
2024/01/23 06:45:24;;;;;;;0.30;0.30;;;6.60;1.00;;;;;;5117879;27;20054;-74
2024/01/23 06:47:53;;;;;;;0.52;0.52;;;6.60;1.00;;;;;;5100649;27;20047;-76
2024/01/23 06:50:19;;;;;;;0.45;0.35;;;;;;;;;;5152417;27;20504;-75
2024/01/23 06:52:45;;;;;;;3.75;1.30;;;6.30;1.00;;;;;;5101909;27;20038;-77
2024/01/23 06:55:11;;;;;;;10.38;3.75;;;6.40;1.00;;;;;;5119498;27;20043;-73
2024/01/23 06:57:37;;;;;;;3.90;2.20;;;6.50;1.00;;;;;;5109906;28;20062;-74
2024/01/23 07:00:04;;;;;;;0.38;0.38;;;;;;;;;;5082205;28;20044;-74
2024/01/23 07:02:30;;;;;;;0.68;0.68;;;6.50;1.00;;;;;;5125213;27;20121;-72
2024/01/23 07:04:56;;;;;;;2.13;2.00;;;6.50;1.00;;;;;;5097897;27;20030;-72
2024/01/23 07:07:25;;;;;;;3.35;0.68;;;6.50;1.00;;;;;;5118747;27;20047;-73
2024/01/23 07:09:51;;;;;;;0.70;0.63;;;;;;;;;;5144710;27;20104;-73
2024/01/23 07:12:17;;;;;;;0.47;0.47;;;6.40;1.00;;;;;;5117401;27;20083;-75
2024/01/23 07:14:43;;;;;;;3.10;1.05;;;6.50;1.00;;;;;;5118029;28;20050;-72
2024/01/23 07:17:10;;;;;;;4.47;1.42;;;;;;;;;;5143385;27;20107;-74
2024/01/23 07:19:36;;;;;;;3.17;1.42;;;6.50;1.00;;;;;;5110432;27;20077;-73
2024/01/23 07:22:02;;;;;;;1.02;0.95;;;6.40;1.00;;;;;;5098326;27;20074;-72
2024/01/23 07:24:28;;;;;;;0.25;0.25;;;6.30;1.00;;;;;;5100006;27;20043;-74
2024/01/23 07:26:54;;;;;;;0.93;0.90;;;;;;;;;;5142290;27;20043;-73
2024/01/23 07:29:20;;;;;;;;;;;6.30;1.00;;;;;;5142158;27;20046;-72
2024/01/23 07:31:46;;;;;;;6.25;1.95;;;6.50;1.00;;;;;;5115338;28;19923;-73
2024/01/23 07:34:12;;;;;;;0.45;0.45;;;6.40;1.00;;;;;;5138212;27;20047;-73
2024/01/23 07:36:38;;;;;;;6.43;3.95;;;6.40;1.00;;;;;;5121813;28;20465;-72
2024/01/23 07:39:05;;;;;;;0.70;0.70;;;6.50;1.00;;;;;;5106121;27;20506;-74
2024/01/23 07:41:32;;;;;;;3.90;0.50;;;;;;;;;;5126983;27;20050;-74
2024/01/23 07:43:58;;;;;;;;;;;6.40;1.00;;;;;;5116801;27;20054;-72
2024/01/23 07:46:25;;;;;;;1.80;1.65;;;6.80;1.00;;;;;;5153116;27;19930;-75
2024/01/23 07:48:51;;;;;;;1.45;0.73;;;6.50;1.00;;;;;;5135835;27;20078;-73
2024/01/23 07:51:17;;;;;;;9.55;2.08;;;;;;;;;;5118694;27;20560;-73
2024/01/23 07:53:44;;;;;;;0.88;0.88;;;6.30;1.00;;;;;;5116733;27;20046;-74
2024/01/23 07:56:10;;;;;;;1.55;0.93;;;6.20;1.00;;;;;;5110787;27;20076;-77
2024/01/23 07:58:36;;;;;;;0.45;0.45;;;6.50;1.00;;;;;;5107378;27;20775;-75
2024/01/23 08:01:03;;;;;;;1.88;0.50;;;6.50;1.00;;;;;;5108666;27;20130;-73
2024/01/23 08:03:29;;;;;;;0.73;0.73;;;6.30;1.00;;;;;;5154692;27;20047;-72
2024/01/23 08:05:57;;;;;;;;;;;6.50;1.00;;;;;;5136775;27;20035;-73
2024/01/23 08:08:23;;;;;;;3.42;1.02;;;;;;;;;;5156609;27;19919;-75
2024/01/23 08:10:51;;;;;;;;;;;6.50;1.00;;;;;;5085973;27;20043;-78
2024/01/23 08:13:20;;;;;;;0.88;0.65;;;;;;;;;;5133615;27;19919;-72
2024/01/23 08:15:47;;;;;;;1.02;0.47;;;6.50;1.00;;;;;;5118312;27;20499;-74
2024/01/23 08:18:14;;;;;;;0.65;0.65;;;6.30;1.00;;;;;;5150689;27;20050;-74
2024/01/23 08:20:40;;;;;;;0.60;0.60;;;6.50;1.00;;;;;;5105248;27;20050;-72
2024/01/23 08:23:06;;;;;;;0.85;0.85;;;6.40;1.00;;;;;;5138141;27;20127;-72
2024/01/23 08:25:34;;;;;;;1.40;1.15;;;6.50;1.00;;;;;;5120326;27;20039;-74
2024/01/23 08:28:00;;;;;;;1.27;1.23;;;;;;;;;;5106649;27;20502;-73
2024/01/23 08:30:27;;;;;;;1.25;0.73;;;6.40;1.00;;;;;;5138063;27;20418;-76
2024/01/23 08:32:53;;;;;;;;;;;6.50;1.00;;;;;;5138545;27;20045;-74
2024/01/23 08:35:19;;;;;;;6.55;0.88;;;6.20;1.00;;;;;;5120963;27;19926;-72
2024/01/23 08:37:45;;;;;;;0.50;0.50;;;6.40;1.00;;;;;;5103764;27;20057;-76
2024/01/23 08:40:11;;;;;;;0.30;0.30;;;6.50;1.00;;;;;;5138197;27;20046;-73
2024/01/23 08:42:37;;;;;;;4.20;1.08;;;6.50;1.00;;;;;;5084342;27;20050;-76
2024/01/23 08:45:04;;;;;;;18.83;3.28;;;6.40;1.00;;;;;;5099882;27;20043;-75
2024/01/23 08:47:30;;;;;;;0.30;0.30;;;6.40;1.00;;;;;;5115247;27;20062;-75
2024/01/23 08:49:56;;;;;;;0.90;0.90;;;6.50;1.00;;;;;;5121044;27;20400;-75
2024/01/23 08:52:23;;;;;;;0.90;0.90;;;6.20;1.00;;;;;;5084388;27;20047;-76
2024/01/23 08:54:49;;;;;;;13.32;2.65;;;6.30;1.00;;;;;;5100589;27;20050;-77
2024/01/23 08:57:17;;;;;;;4.60;3.40;;;6.20;1.00;;;;;;5115793;27;20055;-75
2024/01/23 08:59:44;;;;;;;1.45;1.27;;;6.40;1.00;;;;;;5120539;27;20410;-74
2024/01/23 09:02:10;;;;;;;;;;;6.50;1.00;;;;;;5138415;27;20085;-76
2024/01/23 09:04:37;;;;;;;1.10;1.10;;;6.60;1.00;;;;;;5112400;27;19919;-76
2024/01/23 09:07:03;;;;;;;2.20;1.23;;;6.50;1.00;;;;;;5092218;27;20091;-76
2024/01/23 09:09:30;;;;;;;;;;;6.60;1.00;;;;;;5124665;27;20513;-76
2024/01/23 09:11:56;;;;;;;0.40;0.40;;;6.70;1.00;;;;;;5117577;27;20056;-74
2024/01/23 09:14:22;;;;;;;2.45;1.00;;;6.70;1.00;;;;;;5125987;27;20048;-76
2024/01/23 09:16:49;;;;;;;3.90;3.63;;;6.60;1.00;;;;;;5082800;27;20048;-75
2024/01/23 09:19:15;;;;;;;2.35;1.67;;;;;;;;;;5117895;27;20372;-76
2024/01/23 09:21:41;;;;;;;17.23;2.47;;;6.30;1.00;;;;;;5135458;27;20070;-76
2024/01/23 09:24:08;;;;;;;3.17;1.35;;;6.80;1.00;;;;;;5108082;28;20051;-75
2024/01/23 09:26:34;;;;;;;0.38;0.38;;;6.90;1.00;;;;;;5128627;27;20199;-76
2024/01/23 09:29:01;;;;;;;0.20;0.20;;;6.70;1.00;;;;;;5116603;27;20071;-78
2024/01/23 09:31:27;;;;;;;0.77;0.70;;;6.80;1.00;;;;;;5086705;27;20130;-75
2024/01/23 09:33:53;;;;;;;0.50;0.50;;;6.90;1.00;;;;;;5117578;27;20099;-76
2024/01/23 09:36:19;;;;;;;0.93;0.65;;;6.70;1.00;;;;;;5103278;27;20100;-74
2024/01/23 09:38:46;;;;;;;3.10;1.30;;;6.90;1.00;;;;;;5099355;27;20479;-75
2024/01/23 09:41:12;;;;;;;;;;;7.00;1.00;;;;;;5133698;27;20144;-73
2024/01/23 09:43:44;;;;;;;6.57;1.17;;;;;;;;;;5133672;27;19927;-77
2024/01/23 09:46:13;;;;;;;2.90;1.48;;;6.80;1.00;;;;;;5094652;28;20044;-79
2024/01/23 09:48:40;;;;;;;1.45;0.73;;;7.10;1.00;;;;;;5089377;28;20059;-77
2024/01/23 09:51:13;;;;;;;1.85;1.33;;;7.10;1.00;;;;;;5093114;28;20044;-77
2024/01/23 09:53:43;;;;;;;14.95;1.60;;;7.40;1.00;;;;;;5106874;28;20056;-76
2024/01/23 09:56:11;;;;;;;17.63;1.25;;;7.00;1.00;;;;;;5096104;28;20050;-76
2024/01/23 09:58:37;;;;;;;0.98;0.98;;;7.30;1.00;;;;;;5093032;28;20083;-76
2024/01/23 10:01:04;;;;;;;0.90;0.90;;;7.30;1.00;;;;;;5096788;28;20100;-77
2024/01/23 10:03:35;;;;;;;0.20;0.20;;;7.70;1.00;;;;;;5075512;28;20047;-76
2024/01/23 10:06:03;;;;;;;11.70;3.72;;;7.40;1.00;;;;;;5103327;27;20176;-77
2024/01/23 10:08:29;;;;;;;1.30;1.20;;;7.30;1.00;;;;;;5115214;27;20059;-78
2024/01/23 10:10:59;;;;;;;2.38;1.90;;;;;;;;;;5115553;27;20103;-78
2024/01/23 10:13:29;;;;;;;0.22;0.22;;;7.20;1.00;;;;;;5131732;27;20039;-77
2024/01/23 10:15:55;;;;;;;6.45;1.77;;;7.60;1.00;;;;;;5098699;27;20039;-76
2024/01/23 10:18:21;;;;;;;;;;;7.60;1.00;;;;;;5130441;27;20053;-75
2024/01/23 10:20:48;;;;;;;0.40;0.40;;;7.80;1.00;;;;;;5104873;27;19968;-78
2024/01/23 10:23:14;;;;;;;0.50;0.50;;;7.50;1.00;;;;;;5129475;27;20714;-77
2024/01/23 10:25:40;;;;;;;;;;;7.70;1.00;;;;;;5088648;27;20122;-76
2024/01/23 10:28:10;;;;;;;2.03;1.90;;;7.60;1.00;;;;;;5112075;27;20094;-75
2024/01/23 10:30:40;;;;;;;0.82;0.82;;;7.90;1.00;;;;;;5094937;28;20047;-78
2024/01/23 10:33:09;;;;;;;1.27;0.55;;;7.70;1.00;;;;;;5112677;27;20047;-77
2024/01/23 10:35:36;;;;;;;11.13;1.45;;;8.00;1.00;;;;;;5113442;28;20067;-77
2024/01/23 10:38:05;;;;;;;2.58;1.05;;;8.00;1.00;;;;;;5112151;27;20044;-77
2024/01/23 10:40:32;;;;;;;6.55;2.22;;;8.10;1.00;;;;;;5092312;28;20123;-77
2024/01/23 10:42:58;;;;;;;9.95;1.45;;;7.90;1.00;;;;;;5112158;28;20076;-74
2024/01/23 10:45:25;;;;;;;4.18;2.08;;;8.00;1.00;;;;;;5094440;28;20054;-74
2024/01/23 10:47:52;;;;;;;0.20;0.20;;;8.10;1.00;;;;;;5111677;28;20086;-75
2024/01/23 10:50:21;;;;;;;0.60;0.60;;;7.80;1.00;;;;;;5107231;27;20509;-73
2024/01/23 10:52:49;;;;;;;4.45;1.35;;;8.30;1.00;;;;;;5113925;28;20043;-73
2024/01/23 10:55:16;;;;;;;0.80;0.80;;;8.10;1.00;;;;;;5108887;28;20042;-72
2024/01/23 10:57:47;;;;;;;0.30;0.30;;;8.30;1.00;;;;;;5102317;28;20050;-74
2024/01/23 11:00:18;;;;;;;3.53;2.70;;;8.40;1.00;;;;;;5118391;27;20403;-73
2024/01/23 11:02:59;;;;;;;0.22;0.22;;;8.20;99.90;;;;;;5115503;28;20031;-76
2024/01/23 11:05:33;;;;;;;1.05;0.70;;;8.20;99.90;;;;;;5101828;27;20039;-74
2024/01/23 11:08:12;;;;;;;1.50;1.42;;;8.10;99.90;;;;;;5104422;28;20142;-74
2024/01/23 11:10:54;;;;;;;0.60;0.60;;;8.30;99.90;;;;;;5118145;28;20447;-76
2024/01/23 11:13:42;;;;;;;2.47;1.88;;;8.30;99.90;;;;;;5117229;28;20051;-75
2024/01/23 11:16:09;;;;;;;3.58;1.30;;;8.00;1.00;;;;;;5086099;28;20052;-75
2024/01/23 11:18:35;;;;;;;4.13;1.63;;;8.30;1.00;;;;;;5074472;28;20051;-75
2024/01/23 11:21:05;;;;;;;5.60;0.80;;;8.50;1.00;;;;;;5102824;28;20126;-75
2024/01/23 11:23:32;;;;;;;1.55;1.00;;;8.10;1.00;;;;;;5092006;28;20048;-75
2024/01/23 11:26:03;;;;;;;9.30;6.07;;;8.20;1.00;;;;;;5103973;28;20044;-75
2024/01/23 11:28:33;;;;;;;9.52;1.75;;;8.20;1.00;;;;;;5095237;28;20075;-75
2024/01/23 11:31:06;;;;;;;4.95;2.55;;;;;;;;;;5094712;28;20105;-75
2024/01/23 11:33:34;;;;;;;0.60;0.60;;;8.30;1.00;;;;;;5081813;28;20069;-75
2024/01/23 11:36:35;;;;;;;0.63;0.63;;;8.30;99.90;;;;;;5092515;28;20044;-74
2024/01/23 11:39:01;;;;;;;0.70;0.68;;;8.70;1.00;;;;;;5079977;28;20106;-75
2024/01/23 11:41:28;;;;;;;4.40;0.73;;;8.40;99.90;;;;;;5099672;28;20507;-75
2024/01/23 11:44:00;;;;;;;0.75;0.60;;;8.50;99.90;;;;;;5099584;28;20055;-77
2024/01/23 11:46:27;;;;;;;1.10;1.00;;;8.50;99.90;;;;;;5112044;28;20047;-75
2024/01/23 11:48:54;;;;;;;0.20;0.20;;;8.40;99.90;;;;;;5099285;28;20104;-74
2024/01/23 11:51:24;;;;;;;4.28;1.83;;;8.30;99.90;;;;;;5115686;28;20523;-73
2024/01/23 11:53:55;;;;;;;3.13;0.38;;;8.70;99.90;;;;;;5099681;28;20053;-75
2024/01/23 11:56:22;;;;;;;0.63;0.63;;;8.30;99.90;;;;;;5095166;28;20480;-75
2024/01/23 11:58:48;;;;;;;;;;;8.50;99.90;;;;;;5094031;27;20049;-75
2024/01/23 12:01:15;;;;;;;25.23;2.97;;;8.50;99.90;;;;;;5115754;28;20010;-75
2024/01/23 12:03:49;;;;;;;1.33;1.13;;;8.50;99.90;;;;;;5097601;27;20052;-74
2024/01/23 12:06:15;;;;;;;0.98;0.98;;;8.00;99.90;;;;;;5091777;27;20043;-76
2024/01/23 12:08:43;;;;;;;0.57;0.57;;;8.60;99.90;;;;;;5116306;27;20062;-75
2024/01/23 12:11:10;;;;;;;3.22;1.58;;;8.60;99.90;;;;;;5115799;28;20139;-75
2024/01/23 12:13:37;;;;;;;1.25;1.10;;;8.50;99.90;;;;;;5115776;27;20043;-77
2024/01/23 12:16:09;;;;;;;4.57;0.80;;;8.30;99.90;;;;;;5098694;28;20043;-74
2024/01/23 12:18:35;;;;;;;1.27;0.68;;;8.50;99.90;;;;;;5100970;27;20498;-75
2024/01/23 12:21:03;;;;;;;2.97;0.95;;;8.60;99.90;;;;;;5119546;27;20039;-74
2024/01/23 12:23:30;;;;;;;1.77;0.50;;;8.50;99.90;;;;;;5135712;27;20039;-75
2024/01/23 12:25:56;;;;;;;;;;;8.90;99.90;;;;;;5103258;27;20050;-78
2024/01/23 12:28:23;;;;;;;21.70;2.75;;;8.80;99.90;;;;;;5120868;27;19988;-74
2024/01/23 12:30:49;;;;;;;0.50;0.50;;;8.70;99.90;;;;;;5118217;27;20051;-74
2024/01/23 12:33:17;;;;;;;1.92;0.65;;;8.70;99.90;;;;;;5133760;27;20042;-75
2024/01/23 12:35:44;;;;;;;0.80;0.80;;;8.80;99.90;;;;;;5133871;27;20053;-75
2024/01/23 12:38:16;;;;;;;0.57;0.57;;;8.80;99.90;;;;;;5133800;27;20046;-76
2024/01/23 12:40:42;;;;;;;0.73;0.73;;;8.50;99.90;;;;;;5133119;27;20039;-74
2024/01/23 12:43:13;;;;;;;1.10;1.10;;;8.70;99.90;;;;;;5133330;27;20058;-75
2024/01/23 12:45:38;;;;;;;1.17;0.43;;;8.50;99.90;;;;;;5132885;27;20507;-77
2024/01/23 12:48:10;;;;;;;3.20;1.13;;;8.50;99.90;;;;;;5133760;27;20047;-75
2024/01/23 12:50:37;;;;;;;0.60;0.60;;;8.30;99.90;;;;;;5133620;27;20087;-76
2024/01/23 12:53:04;;;;;;;0.30;0.30;;;8.20;99.90;;;;;;5134050;27;20047;-76
2024/01/23 12:55:32;;;;;;;0.73;0.73;;;8.30;99.90;;;;;;5134380;27;20044;-76
2024/01/23 12:57:59;;;;;;;0.63;0.52;;;8.20;99.90;;;;;;5133376;27;20251;-75
2024/01/23 13:00:25;;;;;;;0.63;0.63;;;8.40;99.90;;;;;;5131831;27;20086;-74
2024/01/23 13:02:52;;;;;;;0.45;0.45;;;8.60;99.90;;;;;;5133878;27;20401;-74
2024/01/23 13:05:18;;;;;;;0.20;0.20;;;8.30;99.90;;;;;;5133981;27;20078;-76
2024/01/23 13:07:51;;;;;;;4.75;0.88;;;8.30;99.90;;;;;;5141535;27;20059;-74
2024/01/23 13:10:17;;;;;;;9.93;1.45;;;8.20;99.90;;;;;;5154331;27;20050;-76
2024/01/23 13:12:43;;;;;;;2.00;0.85;;;8.00;99.90;;;;;;5154916;27;20045;-76
2024/01/23 13:15:09;;;;;;;;;;;8.20;99.90;;;;;;5136380;27;20410;-74
2024/01/23 13:17:35;;;;;;;1.08;0.52;;;8.20;99.90;;;;;;5155183;27;19922;-76